Time;durP1;ratioP1;P1;durP2;ratioP2;P2;SDS_P1;SDS_P2;PMS_P1;PMS_P2;Temp;Humidity;BMP_temperature;BMP_pressure;BME280_temperature;BME280_humidity;BME280_pressure;Samples;Min_cycle;Max_cycle;Signal;HPM_P1;HPM_P2
2023/07/13 00:01:58;;;;;;;3.50;1.73;;;17.90;99.90;;;;;;4981269;28;20188;-85
2023/07/13 00:04:25;;;;;;;5.57;2.40;;;17.90;99.90;;;;;;4980903;28;20203;-86
2023/07/13 00:06:52;;;;;;;4.13;1.90;;;18.00;99.90;;;;;;4980734;28;20269;-85
2023/07/13 00:09:19;;;;;;;2.70;1.70;;;18.00;99.90;;;;;;4981019;28;20171;-86
2023/07/13 00:11:47;;;;;;;4.60;1.90;;;18.00;99.90;;;;;;4997390;28;20544;-87
2023/07/13 00:14:15;;;;;;;5.47;2.00;;;18.00;99.90;;;;;;4980777;28;20195;-86
2023/07/13 00:16:43;;;;;;;4.18;1.80;;;18.00;99.90;;;;;;4981046;28;20230;-85
2023/07/13 00:19:10;;;;;;;4.00;1.88;;;18.00;99.90;;;;;;4980882;28;20176;-86
2023/07/13 00:21:35;;;;;;;4.55;1.75;;;18.00;99.90;;;;;;4998427;28;20728;-85
2023/07/13 00:24:04;;;;;;;3.83;1.88;;;18.00;99.90;;;;;;4980992;28;20211;-86
2023/07/13 00:26:29;;;;;;;4.53;1.65;;;18.00;99.90;;;;;;4980610;28;20207;-86
2023/07/13 00:28:55;;;;;;;8.23;2.15;;;17.90;99.90;;;;;;4980545;28;20192;-85
2023/07/13 00:31:21;;;;;;;4.20;1.90;;;17.90;99.90;;;;;;4980932;28;20180;-86
2023/07/13 00:33:47;;;;;;;5.53;2.00;;;17.80;99.90;;;;;;4980763;28;20187;-86
2023/07/13 00:36:13;;;;;;;3.00;1.92;;;17.80;99.90;;;;;;4980492;28;20187;-86
2023/07/13 00:38:38;;;;;;;3.70;2.15;;;17.70;99.90;;;;;;4980704;28;20671;-86
2023/07/13 00:41:04;;;;;;;6.90;1.90;;;17.70;99.90;;;;;;4980683;28;20258;-88
2023/07/13 00:43:36;;;;;;;3.65;1.83;;;17.60;99.90;;;;;;4980403;28;20222;-86
2023/07/13 00:46:01;;;;;;;3.75;1.92;;;17.60;99.90;;;;;;4980824;28;20178;-87
2023/07/13 00:48:33;;;;;;;4.65;1.80;;;17.60;99.90;;;;;;4980387;28;20603;-85
2023/07/13 00:51:01;;;;;;;2.80;2.00;;;17.70;99.90;;;;;;4997843;28;20222;-86
2023/07/13 00:53:30;;;;;;;4.25;1.88;;;17.70;99.90;;;;;;4997863;28;20179;-85
2023/07/13 00:55:57;;;;;;;4.22;2.03;;;17.70;99.90;;;;;;4980873;28;20183;-86
2023/07/13 00:58:25;;;;;;;5.88;2.33;;;17.60;99.90;;;;;;4980236;28;20187;-86
2023/07/13 01:00:52;;;;;;;7.50;2.47;;;17.50;99.90;;;;;;4980435;28;20187;-86
2023/07/13 01:03:19;;;;;;;5.18;2.10;;;17.40;99.90;;;;;;4980303;28;20176;-85
2023/07/13 01:05:53;;;;;;;3.58;2.20;;;17.30;99.90;;;;;;4980538;28;20175;-88
2023/07/13 01:08:20;;;;;;;4.45;2.33;;;17.30;99.90;;;;;;4980712;28;20206;-86
2023/07/13 01:10:55;;;;;;;4.07;2.00;;;17.20;99.90;;;;;;4980181;28;20176;-87
2023/07/13 01:13:21;;;;;;;3.15;2.10;;;17.10;99.90;;;;;;4980041;28;20184;-86
2023/07/13 01:15:49;;;;;;;3.97;2.20;;;17.10;99.90;;;;;;4997867;28;20176;-88
2023/07/13 01:18:22;;;;;;;5.15;2.25;;;17.00;99.90;;;;;;4980493;28;20172;-87
2023/07/13 01:20:56;;;;;;;5.18;2.17;;;17.00;99.90;;;;;;4980165;28;20257;-86
2023/07/13 01:23:24;;;;;;;7.53;2.30;;;16.90;99.90;;;;;;4980126;28;20175;-87
2023/07/13 01:25:53;;;;;;;4.50;2.22;;;16.90;99.90;;;;;;4980044;28;20250;-85
2023/07/13 01:28:19;;;;;;;4.03;2.30;;;16.80;99.90;;;;;;4979983;28;20603;-86
2023/07/13 01:30:46;;;;;;;4.00;2.28;;;16.80;99.90;;;;;;4979780;28;20184;-87
2023/07/13 01:33:14;;;;;;;5.97;1.95;;;16.80;99.90;;;;;;4979805;28;20248;-87
2023/07/13 01:35:41;;;;;;;5.75;2.53;;;16.80;99.90;;;;;;4979823;28;20266;-85
2023/07/13 01:38:08;;;;;;;5.95;2.40;;;16.80;99.90;;;;;;4979732;28;20677;-85
2023/07/13 01:40:34;;;;;;;4.88;2.20;;;16.80;99.90;;;;;;4979620;28;20180;-86
2023/07/13 01:43:00;;;;;;;3.60;2.00;;;16.80;99.90;;;;;;4996467;28;20666;-88
2023/07/13 01:45:26;;;;;;;4.47;1.98;;;16.80;99.90;;;;;;4979772;28;20188;-85
2023/07/13 01:47:52;;;;;;;4.40;2.13;;;16.70;99.90;;;;;;4979777;28;20214;-86
2023/07/13 01:50:18;;;;;;;4.53;2.22;;;16.70;99.90;;;;;;4979845;28;20633;-87
2023/07/13 01:52:44;;;;;;;4.57;2.28;;;16.70;99.90;;;;;;4979591;28;20176;-86
2023/07/13 01:55:11;;;;;;;4.45;2.20;;;16.60;99.90;;;;;;4979720;28;20634;-89
2023/07/13 01:57:36;;;;;;;3.25;2.00;;;16.60;99.90;;;;;;4996704;28;20164;-86
2023/07/13 02:00:07;;;;;;;5.38;2.22;;;16.60;99.90;;;;;;4978757;28;20214;-88
2023/07/13 02:02:32;;;;;;;6.13;2.40;;;16.60;99.90;;;;;;4979554;28;20180;-86
2023/07/13 02:04:59;;;;;;;5.93;2.33;;;16.60;99.90;;;;;;4979226;28;20518;-88
2023/07/13 02:07:25;;;;;;;3.90;2.20;;;16.50;99.90;;;;;;4979200;28;20200;-85
2023/07/13 02:09:51;;;;;;;4.93;2.50;;;16.50;99.90;;;;;;4996370;28;20497;-84
2023/07/13 02:12:16;;;;;;;5.68;2.22;;;16.50;99.90;;;;;;4996411;28;20235;-87
2023/07/13 02:14:43;;;;;;;6.97;2.53;;;16.40;99.90;;;;;;4979217;28;20186;-87
2023/07/13 02:17:09;;;;;;;4.63;2.50;;;16.30;99.90;;;;;;4978945;28;20184;-86
2023/07/13 02:19:36;;;;;;;5.22;2.05;;;16.30;99.90;;;;;;4978730;28;20271;-86
2023/07/13 02:22:02;;;;;;;4.75;2.60;;;16.30;99.90;;;;;;4978917;28;20238;-85
2023/07/13 02:24:32;;;;;;;5.82;2.63;;;16.20;99.90;;;;;;4978685;28;20267;-85
2023/07/13 02:26:58;;;;;;;7.60;2.50;;;16.10;99.90;;;;;;4995933;28;20203;-84
2023/07/13 02:29:24;;;;;;;4.95;2.33;;;16.00;99.90;;;;;;4996046;28;20172;-86
2023/07/13 02:31:49;;;;;;;4.63;2.50;;;16.00;99.90;;;;;;4978396;28;20187;-85
2023/07/13 02:34:15;;;;;;;6.13;2.35;;;16.00;99.90;;;;;;4978780;28;20191;-87
2023/07/13 02:36:42;;;;;;;4.22;2.30;;;15.90;99.90;;;;;;4995978;28;20512;-86
2023/07/13 02:39:11;;;;;;;4.07;2.17;;;16.00;99.90;;;;;;4978420;28;20180;-87
2023/07/13 02:41:36;;;;;;;5.97;2.42;;;16.00;99.90;;;;;;4995915;28;20310;-86
2023/07/13 02:44:03;;;;;;;4.35;2.55;;;16.00;99.90;;;;;;4978039;28;20655;-86
2023/07/13 02:46:31;;;;;;;5.85;2.45;;;15.90;99.90;;;;;;4978285;28;20235;-86
2023/07/13 02:48:57;;;;;;;5.53;2.95;;;15.80;99.90;;;;;;4978225;28;20186;-85
2023/07/13 02:51:22;;;;;;;4.90;2.53;;;15.80;99.90;;;;;;4978719;28;20175;-87
2023/07/13 02:53:48;;;;;;;3.92;1.95;;;15.80;99.90;;;;;;4978250;28;20200;-87
2023/07/13 02:56:14;;;;;;;5.97;2.50;;;15.80;99.90;;;;;;4978528;28;20549;-85
2023/07/13 02:58:39;;;;;;;5.40;2.50;;;15.70;99.90;;;;;;4994575;28;20171;-85
2023/07/13 03:01:10;;;;;;;5.80;2.60;;;15.60;99.90;;;;;;4978385;28;20184;-86
2023/07/13 03:03:36;;;;;;;6.32;2.72;;;15.60;99.90;;;;;;4995710;28;20172;-86
2023/07/13 03:06:05;;;;;;;7.57;2.70;;;15.60;99.90;;;;;;4995817;28;20180;-86
2023/07/13 03:08:30;;;;;;;4.78;2.72;;;15.60;99.90;;;;;;4978462;28;20689;-86
2023/07/13 03:11:04;;;;;;;5.72;2.35;;;15.50;99.90;;;;;;4995477;28;20179;-86
2023/07/13 03:13:31;;;;;;;3.17;2.35;;;15.50;99.90;;;;;;4977862;28;20183;-85
2023/07/13 03:16:03;;;;;;;4.65;2.63;;;15.50;99.90;;;;;;4994345;28;20187;-86
2023/07/13 03:18:29;;;;;;;2.40;2.00;;;15.60;99.90;;;;;;4978127;28;20172;-86
2023/07/13 03:20:55;;;;;;;4.15;2.40;;;15.70;99.90;;;;;;4977809;28;20199;-86
2023/07/13 03:23:22;;;;;;;7.05;2.22;;;15.70;99.90;;;;;;4977994;28;20529;-86
2023/07/13 03:25:49;;;;;;;6.15;2.45;;;15.80;99.90;;;;;;4995665;28;20231;-87
2023/07/13 03:28:15;;;;;;;6.28;2.65;;;15.80;99.90;;;;;;4995612;28;20200;-88
2023/07/13 03:30:41;;;;;;;4.25;2.00;;;15.80;99.90;;;;;;4995444;28;20619;-88
2023/07/13 03:33:07;;;;;;;6.32;2.28;;;15.80;99.90;;;;;;4978176;28;20204;-86
2023/07/13 03:35:40;;;;;;;7.68;2.45;;;15.80;99.90;;;;;;4978087;28;20236;-88
2023/07/13 03:38:06;;;;;;;8.73;2.70;;;15.80;99.90;;;;;;4978059;28;20171;-87
2023/07/13 03:40:32;;;;;;;5.30;2.30;;;15.80;99.90;;;;;;4978253;28;20553;-86
2023/07/13 03:42:57;;;;;;;5.13;2.17;;;15.80;99.90;;;;;;4977796;28;20335;-86
2023/07/13 03:45:23;;;;;;;4.70;2.20;;;15.80;99.90;;;;;;4958668;28;20310;-87
2023/07/13 03:47:49;;;;;;;4.63;2.28;;;15.80;99.90;;;;;;4975776;28;20242;-91
2023/07/13 03:50:14;;;;;;;5.35;2.10;;;15.90;99.90;;;;;;4958910;28;20180;-88
2023/07/13 03:52:40;;;;;;;7.25;2.50;;;15.90;99.90;;;;;;4958539;28;20265;-87
2023/07/13 03:55:06;;;;;;;3.95;2.25;;;16.00;99.90;;;;;;4959092;28;20176;-87
2023/07/13 03:57:34;;;;;;;6.57;2.35;;;16.10;99.90;;;;;;4982413;28;20222;-85
2023/07/13 04:00:00;;;;;;;4.43;2.15;;;16.20;99.90;;;;;;4997498;28;20167;-87
2023/07/13 04:02:26;;;;;;;5.10;2.35;;;16.20;99.90;;;;;;4997201;28;20194;-87
2023/07/13 04:04:54;;;;;;;4.70;2.00;;;16.20;99.90;;;;;;4997183;28;20632;-87
2023/07/13 04:07:19;;;;;;;4.13;2.17;;;16.20;99.90;;;;;;4997234;28;20210;-86
2023/07/13 04:09:48;;;;;;;7.22;2.50;;;16.30;99.90;;;;;;4997231;28;20167;-87
2023/07/13 04:12:14;;;;;;;5.55;2.30;;;16.40;99.90;;;;;;4997368;28;20187;-88
2023/07/13 04:14:40;;;;;;;9.07;2.55;;;16.30;99.90;;;;;;4983494;28;20231;-88
2023/07/13 04:17:06;;;;;;;3.42;2.03;;;16.40;99.90;;;;;;4994917;28;20211;-86
2023/07/13 04:19:32;;;;;;;3.83;1.95;;;16.50;99.90;;;;;;4977362;28;20186;-86
2023/07/13 04:21:57;;;;;;;4.75;2.10;;;16.40;99.90;;;;;;4977869;28;20180;-90
2023/07/13 04:24:23;;;;;;;5.15;2.00;;;16.50;99.90;;;;;;4997611;28;20618;-85
2023/07/13 04:26:59;;;;;;;5.47;2.38;;;16.50;99.90;;;;;;4981185;28;20235;-89
2023/07/13 04:29:25;;;;;;;5.25;2.15;;;16.60;99.90;;;;;;4980945;28;20172;-88
2023/07/13 04:31:50;;;;;;;5.45;2.20;;;16.60;99.90;;;;;;4998494;28;20246;-89
2023/07/13 04:34:16;;;;;;;4.75;2.25;;;16.60;99.90;;;;;;4997234;28;20195;-87
2023/07/13 04:36:53;;;;;;;6.22;2.30;;;16.70;99.90;;;;;;4981140;28;20681;-90
2023/07/13 04:39:20;;;;;;;7.90;2.00;;;16.80;99.90;;;;;;4998281;28;20230;-88
2023/07/13 04:41:46;;;;;;;6.50;2.10;;;16.80;99.90;;;;;;4980146;28;20254;-89
2023/07/13 04:44:11;;;;;;;3.50;2.05;;;16.80;99.90;;;;;;4973461;28;20199;-88
2023/07/13 04:46:42;;;;;;;6.85;2.03;;;16.90;99.90;;;;;;4980855;28;20198;-90
2023/07/13 04:49:08;;;;;;;7.38;2.50;;;17.00;99.90;;;;;;4980918;28;20196;-93
2023/07/13 04:51:34;;;;;;;4.68;2.10;;;17.10;99.90;;;;;;4975635;28;20183;-91
2023/07/13 04:54:00;;;;;;;4.93;1.90;;;17.20;99.90;;;;;;4961532;28;20612;-88
2023/07/13 04:56:37;;;;;;;3.97;1.83;;;17.30;99.90;;;;;;4978552;28;20191;-90
2023/07/13 04:59:03;;;;;;;3.83;1.90;;;17.40;99.90;;;;;;4961252;28;20604;-88
2023/07/13 05:01:28;;;;;;;4.47;1.77;;;17.50;99.90;;;;;;4961537;28;20236;-87
2023/07/13 05:03:57;;;;;;;3.90;2.05;;;17.60;99.90;;;;;;4961145;28;20184;-87
2023/07/13 05:06:23;;;;;;;4.13;1.80;;;17.60;99.90;;;;;;4961238;28;20205;-91
2023/07/13 05:08:48;;;;;;;3.72;1.60;;;17.60;99.90;;;;;;4961144;28;20639;-89
2023/07/13 05:11:14;;;;;;;4.57;1.60;;;17.70;99.90;;;;;;4961372;28;20627;-88
2023/07/13 05:13:40;;;;;;;5.43;1.80;;;17.80;99.90;;;;;;4960360;28;20181;-87
2023/07/13 05:16:07;;;;;;;7.53;2.05;;;17.80;99.90;;;;;;4960996;28;20187;-91
2023/07/13 05:18:33;;;;;;;6.43;1.73;;;17.90;99.90;;;;;;4978299;28;20264;-87
2023/07/13 05:21:05;;;;;;;5.57;2.10;;;17.90;99.90;;;;;;4961036;28;20220;-93
2023/07/13 05:23:32;;;;;;;4.07;1.75;;;18.00;99.90;;;;;;4976901;28;20177;-90
2023/07/13 05:25:58;;;;;;;6.05;1.73;;;18.00;99.90;;;;;;4978259;28;20212;-88
2023/07/13 05:28:26;;;;;;;5.15;1.77;;;18.00;99.90;;;;;;4977901;28;20631;-89
2023/07/13 05:30:53;;;;;;;6.15;2.08;;;18.00;99.90;;;;;;4976770;28;20173;-87
2023/07/13 05:33:19;;;;;;;3.17;1.77;;;18.00;99.90;;;;;;4960372;28;20612;-89
2023/07/13 05:35:45;;;;;;;4.25;1.70;;;18.00;99.90;;;;;;4959496;28;20208;-88
2023/07/13 05:38:19;;;;;;;5.75;1.70;;;17.90;99.90;;;;;;4960545;28;20177;-88
2023/07/13 05:40:46;;;;;;;5.55;1.88;;;18.00;99.90;;;;;;4960425;28;20176;-89
2023/07/13 05:43:12;;;;;;;7.05;1.90;;;18.00;99.90;;;;;;4977203;28;20252;-87
2023/07/13 05:45:38;;;;;;;4.43;1.95;;;17.90;99.90;;;;;;4979758;28;20268;-87
2023/07/13 05:48:06;;;;;;;4.50;1.60;;;17.80;99.90;;;;;;4979510;28;20629;-87
2023/07/13 05:50:32;;;;;;;8.10;1.80;;;17.80;99.90;;;;;;4979575;28;20179;-86
2023/07/13 05:52:58;;;;;;;5.70;1.80;;;17.90;99.90;;;;;;4979351;28;20184;-87
2023/07/13 05:55:23;;;;;;;9.15;1.65;;;18.00;99.90;;;;;;4979503;28;20176;-87
2023/07/13 05:57:51;;;;;;;5.53;1.90;;;18.10;99.90;;;;;;4996850;28;20215;-88
2023/07/13 06:00:17;;;;;;;6.35;1.92;;;18.10;99.90;;;;;;4996425;28;20268;-89
2023/07/13 06:02:42;;;;;;;3.78;1.67;;;18.20;99.90;;;;;;4977343;28;20183;-87
2023/07/13 06:05:08;;;;;;;4.57;1.50;;;18.30;99.90;;;;;;4977046;28;20180;-87
2023/07/13 06:07:34;;;;;;;5.72;1.92;;;18.30;99.90;;;;;;4959707;28;20216;-90
2023/07/13 06:10:00;;;;;;;7.70;1.65;;;18.30;99.90;;;;;;4977308;28;20617;-88
2023/07/13 06:12:27;;;;;;;3.55;1.60;;;18.30;99.90;;;;;;4959839;28;20188;-87
2023/07/13 06:14:53;;;;;;;4.00;1.50;;;18.40;99.90;;;;;;4973891;28;20266;-87
2023/07/13 06:17:19;;;;;;;4.70;1.60;;;18.40;99.90;;;;;;4996251;28;20230;-87
2023/07/13 06:19:45;;;;;;;4.68;1.60;;;18.50;99.90;;;;;;4979161;28;20175;-88
2023/07/13 06:22:10;;;;;;;4.43;1.70;;;18.50;99.90;;;;;;4979031;28;20278;-86
2023/07/13 06:24:36;;;;;;;8.77;1.52;;;18.60;99.90;;;;;;4978867;28;20563;-89
2023/07/13 06:27:02;;;;;;;4.32;1.55;;;18.70;99.90;;;;;;4978932;28;20218;-87
2023/07/13 06:29:27;;;;;;;5.85;1.73;;;18.80;99.90;;;;;;4978691;28;20598;-90
2023/07/13 06:31:53;;;;;;;7.47;1.50;;;18.90;99.90;;;;;;4979079;28;20194;-88
2023/07/13 06:34:19;;;;;;;7.47;2.22;;;19.00;99.90;;;;;;4978682;28;20259;-87
2023/07/13 06:36:45;;;;;;;5.88;1.85;;;19.00;99.90;;;;;;4978605;28;20184;-88
2023/07/13 06:39:14;;;;;;;5.53;1.80;;;19.20;99.90;;;;;;4978472;28;20180;-87
2023/07/13 06:41:40;;;;;;;5.47;1.75;;;19.20;99.90;;;;;;4978456;28;20228;-89
2023/07/13 06:44:06;;;;;;;4.90;1.58;;;19.20;99.90;;;;;;4970421;28;20192;-85
2023/07/13 06:46:32;;;;;;;6.35;1.67;;;19.30;99.90;;;;;;4958504;28;20262;-87
2023/07/13 06:48:58;;;;;;;5.13;1.50;;;19.40;99.90;;;;;;4959407;28;20235;-89
2023/07/13 06:51:24;;;;;;;4.63;1.50;;;19.40;99.90;;;;;;4976433;28;20228;-89
2023/07/13 06:53:50;;;;;;;3.85;1.75;;;19.50;99.90;;;;;;4959293;28;20183;-86
2023/07/13 06:56:16;;;;;;;6.03;1.50;;;19.40;99.90;;;;;;4959295;28;20204;-88
2023/07/13 06:58:43;;;;;;;7.55;1.95;;;19.50;99.90;;;;;;4976400;28;20181;-87
2023/07/13 07:01:10;;;;;;;6.82;1.67;;;19.50;99.90;;;;;;4959308;28;20243;-89
2023/07/13 07:03:35;;;;;;;5.65;1.80;;;19.50;99.90;;;;;;4959148;28;20176;-86
2023/07/13 07:06:15;;;;;;;6.75;1.60;;;19.60;99.90;;;;;;4976483;28;20203;-88
2023/07/13 07:08:45;;;;;;;6.25;1.50;;;19.80;99.90;;;;;;4976383;28;20177;-87
2023/07/13 07:11:22;;;;;;;5.78;1.77;;;20.00;99.90;;;;;;4959128;28;20188;-89
2023/07/13 07:13:47;;;;;;;14.43;4.40;;;20.10;99.90;;;;;;4964096;28;20234;-90
2023/07/13 07:16:13;;;;;;;10.00;2.00;;;20.10;99.90;;;;;;4978560;28;20760;-88
2023/07/13 07:18:39;;;;;;;10.05;1.83;;;20.20;99.90;;;;;;4995592;28;20204;-91
2023/07/13 07:21:05;;;;;;;5.82;1.90;;;20.30;99.90;;;;;;4978243;28;20175;-87
2023/07/13 07:23:31;;;;;;;6.22;2.17;;;20.30;99.90;;;;;;4978288;28;20989;-87
2023/07/13 07:25:57;;;;;;;4.38;1.60;;;20.30;99.90;;;;;;4995899;28;20190;-89
2023/07/13 07:28:30;;;;;;;7.43;1.90;;;20.20;99.90;;;;;;4977945;28;20296;-90
2023/07/13 07:30:57;;;;;;;7.15;1.80;;;20.10;99.90;;;;;;4978308;28;20172;-90
2023/07/13 07:33:24;;;;;;;10.48;2.05;;;20.10;99.90;;;;;;4995581;28;20176;-87
2023/07/13 07:35:50;;;;;;;5.13;1.65;;;20.10;99.90;;;;;;4978361;28;20187;-88
2023/07/13 07:38:16;;;;;;;7.72;2.20;;;20.10;99.90;;;;;;4978132;28;20233;-89
2023/07/13 07:40:42;;;;;;;6.10;2.00;;;20.10;99.90;;;;;;4977895;28;20179;-87
2023/07/13 07:43:10;;;;;;;4.82;2.33;;;20.20;99.90;;;;;;4977840;28;20202;-87
2023/07/13 07:45:37;;;;;;;10.88;2.53;;;20.30;99.90;;;;;;4977632;28;20180;-87
2023/07/13 07:48:06;;;;;;;9.32;2.40;;;20.30;99.90;;;;;;4977885;28;20307;-89
2023/07/13 07:50:32;;;;;;;10.10;2.28;;;20.30;99.90;;;;;;4978217;28;20176;-89
2023/07/13 07:52:58;;;;;;;8.38;2.05;;;20.40;99.90;;;;;;4977509;28;20184;-90
2023/07/13 07:55:28;;;;;;;6.38;1.77;;;20.50;99.90;;;;;;4977982;28;20180;-90
2023/07/13 07:57:54;;;;;;;5.88;1.70;;;20.50;99.90;;;;;;4978258;28;20187;-90
2023/07/13 08:00:20;;;;;;;8.20;1.60;;;20.50;99.90;;;;;;4981314;28;20692;-91
2023/07/13 08:02:46;;;;;;;6.55;1.83;;;20.60;99.90;;;;;;4981984;28;20266;-88
2023/07/13 08:05:11;;;;;;;8.85;1.83;;;20.60;99.90;;;;;;4999370;28;20235;-87
2023/07/13 08:07:39;;;;;;;5.85;1.42;;;20.60;99.90;;;;;;4981670;28;20219;-89
2023/07/13 08:10:06;;;;;;;6.68;1.65;;;20.60;99.90;;;;;;4981697;28;20180;-91
2023/07/13 08:12:36;;;;;;;9.25;1.70;;;20.60;99.90;;;;;;4981294;28;20176;-89
2023/07/13 08:15:02;;;;;;;4.60;1.80;;;20.70;99.90;;;;;;4981179;28;20521;-89
2023/07/13 08:17:28;;;;;;;9.82;1.67;;;20.80;99.90;;;;;;4981591;28;20184;-91
2023/07/13 08:19:55;;;;;;;5.32;1.55;;;20.90;99.90;;;;;;4981341;28;20176;-91
2023/07/13 08:22:21;;;;;;;3.65;1.65;;;21.00;99.90;;;;;;4998325;28;20180;-89
2023/07/13 08:24:54;;;;;;;3.03;1.35;;;21.00;99.90;;;;;;4981033;28;20527;-87
2023/07/13 08:27:20;;;;;;;4.18;1.50;;;20.90;99.90;;;;;;4981321;28;20212;-90
2023/07/13 08:29:48;;;;;;;4.15;1.50;;;20.90;99.90;;;;;;4981271;28;20190;-89
2023/07/13 08:32:15;;;;;;;4.78;1.52;;;20.90;99.90;;;;;;4981568;28;20266;-90
2023/07/13 08:34:40;;;;;;;4.90;1.50;;;21.00;99.90;;;;;;4982072;28;20277;-89
2023/07/13 08:37:06;;;;;;;7.63;1.95;;;20.90;99.90;;;;;;4981538;28;20622;-88
2023/07/13 08:39:40;;;;;;;5.45;1.75;;;20.90;99.90;;;;;;4981265;28;20179;-91
2023/07/13 08:42:29;;;;;;;5.80;1.38;;;20.90;99.90;;;;;;4981102;28;20321;-91
2023/07/13 08:45:14;;;;;;;6.35;1.52;;;21.00;99.90;;;;;;4996507;28;20282;-90
2023/07/13 08:47:48;;;;;;;9.02;1.80;;;21.10;99.90;;;;;;4981037;28;20230;-87
2023/07/13 08:50:21;;;;;;;2.83;1.20;;;21.20;99.90;;;;;;4997076;28;20168;-90
2023/07/13 08:52:48;;;;;;;5.22;1.75;;;21.30;99.90;;;;;;4980977;28;20186;-92
2023/07/13 08:55:21;;;;;;;5.43;1.50;;;21.40;99.90;;;;;;4980767;28;20258;-90
2023/07/13 08:58:01;;;;;;;4.53;1.50;;;21.50;99.90;;;;;;4997179;28;20176;-92
2023/07/13 09:00:57;;;;;;;9.57;1.50;;;21.50;99.90;;;;;;4996803;28;20552;-88
2023/07/13 09:03:29;;;;;;;5.80;1.73;;;21.20;99.90;;;;;;4981034;28;20187;-88
2023/07/13 09:06:02;;;;;;;5.45;1.70;;;21.20;99.90;;;;;;4996961;28;20191;-92
2023/07/13 09:08:41;;;;;;;4.22;1.38;;;21.10;99.90;;;;;;4980360;28;20204;-88
2023/07/13 09:11:36;;;;;;;6.95;1.80;;;21.10;99.90;;;;;;4996690;28;20231;-87
2023/07/13 09:14:35;;;;;;;5.47;1.52;;;21.20;99.90;;;;;;4993492;28;20183;-91
2023/07/13 09:17:05;;;;;;;6.28;1.40;;;21.30;99.90;;;;;;4968123;28;20742;-89
2023/07/13 09:19:35;;;;;;;5.78;1.65;;;21.40;99.90;;;;;;4997602;28;20175;-90
2023/07/13 09:22:05;;;;;;;5.70;1.58;;;21.70;99.90;;;;;;4980146;28;20263;-90
2023/07/13 09:24:57;;;;;;;3.78;1.65;;;21.80;99.90;;;;;;4997422;28;20315;-89
2023/07/13 09:27:30;;;;;;;9.25;1.80;;;21.70;99.90;;;;;;4980331;28;20651;-94
2023/07/13 09:30:16;;;;;;;8.43;1.80;;;21.70;99.90;;;;;;4980151;28;20175;-88
2023/07/13 09:32:44;;;;;;;9.15;1.83;;;22.00;99.90;;;;;;4960678;28;20195;-93
2023/07/13 09:35:12;;;;;;;3.50;1.30;;;22.00;99.90;;;;;;4980030;28;20180;-90
2023/07/13 09:37:41;;;;;;;7.45;1.60;;;21.90;99.00;;;;;;4980144;28;20176;-88
2023/07/13 09:40:17;;;;;;;3.70;1.60;;;21.80;99.90;;;;;;4980290;28;20276;-91
2023/07/13 09:42:43;;;;;;;6.63;1.85;;;21.60;99.50;;;;;;4980333;28;20314;-88
2023/07/13 09:45:09;;;;;;;3.17;1.40;;;21.70;99.90;;;;;;4979883;28;20607;-89
2023/07/13 09:47:39;;;;;;;5.18;1.58;;;21.80;99.90;;;;;;4979944;28;20208;-88
2023/07/13 09:50:16;;;;;;;7.18;1.67;;;21.60;99.90;;;;;;4997207;28;20186;-89
2023/07/13 09:52:49;;;;;;;3.17;1.40;;;21.40;99.90;;;;;;4979380;28;20199;-90
2023/07/13 09:55:36;;;;;;;4.32;1.38;;;21.40;99.90;;;;;;4980168;28;20198;-92
2023/07/13 09:58:14;;;;;;;2.78;1.40;;;21.40;99.90;;;;;;4979525;28;20191;-93
2023/07/13 10:00:43;;;;;;;5.60;1.83;;;21.50;99.90;;;;;;4979605;28;20180;-89
2023/07/13 10:03:21;;;;;;;5.05;1.30;;;21.70;99.90;;;;;;4979760;28;20183;-89
2023/07/13 10:05:50;;;;;;;4.57;1.60;;;22.20;99.90;;;;;;4979034;28;20180;-89
2023/07/13 10:08:27;;;;;;;4.18;1.52;;;22.30;99.90;;;;;;4980085;28;20218;-90
2023/07/13 10:11:02;;;;;;;4.18;1.65;;;22.10;99.40;;;;;;4979696;28;20263;-89
2023/07/13 10:13:39;;;;;;;8.02;1.50;;;21.90;99.60;;;;;;4978538;28;20183;-92
2023/07/13 10:16:07;;;;;;;5.60;1.52;;;21.90;99.90;;;;;;4979282;28;20171;-91
2023/07/13 10:18:46;;;;;;;5.07;1.40;;;21.90;99.90;;;;;;4978369;28;20641;-89
2023/07/13 10:21:21;;;;;;;5.85;1.52;;;21.90;99.90;;;;;;4978480;28;20611;-90
2023/07/13 10:24:12;;;;;;;5.57;1.40;;;22.00;99.90;;;;;;4979050;28;20242;-91
2023/07/13 10:26:42;;;;;;;7.97;1.48;;;22.40;99.90;;;;;;4979744;28;20211;-92
2023/07/13 10:29:14;;;;;;;3.60;1.30;;;22.70;99.90;;;;;;4995425;28;20176;-89
2023/07/13 10:31:47;;;;;;;6.30;1.48;;;22.80;99.90;;;;;;4980191;28;20287;-93
2023/07/13 10:34:13;;;;;;;3.60;1.10;;;22.60;98.10;;;;;;4979076;28;20175;-90
2023/07/13 10:36:47;;;;;;;4.57;1.35;;;22.60;99.40;;;;;;4978770;28;20182;-95
2023/07/13 10:39:23;;;;;;;7.05;1.50;;;22.50;99.00;;;;;;4965808;28;20653;-92
2023/07/13 10:41:59;;;;;;;7.95;1.92;;;22.60;99.40;;;;;;5000390;28;20289;-93
2023/07/13 10:44:29;;;;;;;7.78;1.60;;;22.90;99.80;;;;;;4994789;28;20179;-89
2023/07/13 10:47:06;;;;;;;6.93;1.50;;;22.90;99.00;;;;;;4978796;28;20294;-89
2023/07/13 10:49:36;;;;;;;4.85;1.52;;;22.80;99.30;;;;;;4996426;28;20637;-95
2023/07/13 10:52:04;;;;;;;4.50;1.48;;;22.70;98.40;;;;;;4978246;28;20175;-91
2023/07/13 10:54:35;;;;;;;5.68;1.60;;;22.60;99.80;;;;;;4978269;28;20215;-86
2023/07/13 10:57:20;;;;;;;4.65;1.52;;;22.60;99.90;;;;;;4994099;28;20199;-89
2023/07/13 11:00:18;;;;;;;2.88;1.25;;;22.90;99.90;;;;;;4978484;28;20502;-86
2023/07/13 11:03:00;;;;;;;4.13;1.33;;;23.30;99.90;;;;;;4972597;28;20187;-90
2023/07/13 11:05:33;;;;;;;5.28;1.40;;;23.50;99.60;;;;;;4978631;28;20187;-90
2023/07/13 11:08:31;;;;;;;3.28;1.38;;;23.60;97.40;;;;;;4978012;28;20576;-88
2023/07/13 11:10:57;;;;;;;3.95;1.42;;;23.80;98.90;;;;;;4978349;28;20252;-86
2023/07/13 11:13:49;;;;;;;4.38;1.40;;;23.90;97.60;;;;;;4978685;28;20535;-90
2023/07/13 11:16:18;;;;;;;3.92;1.40;;;23.90;98.00;;;;;;4974628;28;20180;-88
2023/07/13 11:18:51;;;;;;;6.57;1.40;;;23.80;97.90;;;;;;4977853;28;20186;-87
2023/07/13 11:21:18;;;;;;;5.97;1.33;;;23.80;98.20;;;;;;4977588;28;20186;-89
2023/07/13 11:23:52;;;;;;;4.03;1.40;;;23.50;97.70;;;;;;4993926;28;20164;-89
2023/07/13 11:26:45;;;;;;;5.35;1.40;;;23.40;98.10;;;;;;4977650;28;20202;-89
2023/07/13 11:29:36;;;;;;;4.38;1.30;;;23.30;98.60;;;;;;4977740;28;20230;-93
2023/07/13 11:32:26;;;;;;;5.68;1.73;;;23.70;99.60;;;;;;4979232;28;20204;-89
2023/07/13 11:34:54;;;;;;;4.53;1.40;;;24.10;99.20;;;;;;4997845;28;20179;-89
2023/07/13 11:37:21;;;;;;;3.20;1.13;;;24.10;95.70;;;;;;4982915;28;20218;-90
2023/07/13 11:39:48;;;;;;;4.50;1.70;;;23.80;96.60;;;;;;4998338;28;20550;-88
2023/07/13 11:42:18;;;;;;;3.30;1.52;;;23.80;96.90;;;;;;4981683;28;20678;-91
2023/07/13 11:44:54;;;;;;;7.28;1.70;;;24.20;97.10;;;;;;4998374;28;20179;-96
2023/07/13 11:47:25;;;;;;;5.00;1.65;;;24.40;95.80;;;;;;4982572;28;20225;-92
2023/07/13 11:49:59;;;;;;;4.60;1.40;;;24.50;94.90;;;;;;5001279;28;20163;-91
2023/07/13 11:52:36;;;;;;;3.60;1.27;;;24.50;95.50;;;;;;4983819;28;20193;-88
2023/07/13 11:55:13;;;;;;;7.82;1.50;;;24.60;95.30;;;;;;4998442;28;20172;-95
2023/07/13 11:57:46;;;;;;;7.03;1.73;;;24.70;95.50;;;;;;4999334;28;20170;-91
2023/07/13 12:00:22;;;;;;;2.25;1.10;;;24.80;96.00;;;;;;4981954;28;20210;-91
2023/07/13 12:02:50;;;;;;;5.55;1.35;;;24.80;93.90;;;;;;4981917;28;20266;-91
2023/07/13 12:05:20;;;;;;;6.75;1.35;;;24.70;95.20;;;;;;4982283;28;20179;-93
2023/07/13 12:07:46;;;;;;;6.05;1.30;;;24.80;94.30;;;;;;4981737;28;20257;-93
2023/07/13 12:10:32;;;;;;;5.70;1.20;;;25.00;93.70;;;;;;4981872;28;20180;-90
2023/07/13 12:13:08;;;;;;;6.22;1.48;;;25.10;93.30;;;;;;4997676;28;20278;-90
2023/07/13 12:15:48;;;;;;;3.42;1.33;;;25.20;93.90;;;;;;4981716;28;20275;-92
2023/07/13 12:18:19;;;;;;;1.95;1.20;;;25.20;93.00;;;;;;4998051;28;20254;-93
2023/07/13 12:20:47;;;;;;;3.92;1.30;;;25.20;92.50;;;;;;4999727;28;20164;-95
2023/07/13 12:23:34;;;;;;;4.88;1.63;;;25.30;92.50;;;;;;4981478;28;20210;-90
2023/07/13 12:26:05;;;;;;;5.10;1.10;;;25.40;92.50;;;;;;4981323;28;20266;-92
2023/07/13 12:28:35;;;;;;;4.25;1.25;;;25.50;94.30;;;;;;4999292;28;20231;-91
2023/07/13 12:31:02;;;;;;;3.88;1.10;;;25.50;93.40;;;;;;4981570;28;20679;-93
2023/07/13 12:33:46;;;;;;;3.35;1.00;;;25.40;92.70;;;;;;4998240;28;20179;-90
2023/07/13 12:36:12;;;;;;;4.47;1.23;;;25.60;94.00;;;;;;4981674;28;20313;-90
2023/07/13 12:38:38;;;;;;;9.73;1.48;;;25.70;93.30;;;;;;4981239;28;20631;-93
2023/07/13 12:41:05;;;;;;;4.80;1.65;;;25.60;91.80;;;;;;4981558;28;20553;-91
2023/07/13 12:43:40;;;;;;;4.93;1.10;;;25.40;91.30;;;;;;4981121;28;20172;-93
2023/07/13 12:46:21;;;;;;;5.00;1.23;;;25.00;91.00;;;;;;4981150;28;20214;-90
2023/07/13 12:48:53;;;;;;;4.10;1.27;;;24.70;91.50;;;;;;4998404;28;20191;-90
2023/07/13 12:51:22;;;;;;;6.55;1.50;;;24.70;93.50;;;;;;4997445;28;20176;-92
2023/07/13 12:53:54;;;;;;;4.25;1.33;;;24.90;93.20;;;;;;4980210;28;20525;-87
2023/07/13 12:56:23;;;;;;;3.20;1.20;;;25.10;93.80;;;;;;4980696;28;20168;-91
2023/07/13 12:58:54;;;;;;;2.97;1.20;;;25.20;92.50;;;;;;4980729;28;20223;-88